Terminal Aerodrome Forecast
Issued by NWS Albany, NY

Current Version | Previous Version | Text Only | Print | Product List | Glossary On
Versions: 1 2 3 4 5 6 7 8 9 10
000
FTUS41 KALY 282300
TAFPOU
TAF
KPOU 282339Z 2900/2924 29008KT P6SM SCT045 BKN250
      TEMPO 2900/2904 29008G18KT BKN045
     FM290400 29005KT P6SM FEW045 BKN250=

USA.gov is the U.S. government's official web portal to all federal, state and local government web resources and services.